createdAt,value
2022-10-06T00:02:03.314Z,21.70
2022-10-06T00:05:05.309Z,20.15
2022-10-06T00:08:10.236Z,20.08
2022-10-06T00:11:13.003Z,19.60
2022-10-06T00:14:14.943Z,22.53
2022-10-06T00:17:16.906Z,20.50
2022-10-06T00:20:18.997Z,20.88
2022-10-06T00:23:21.132Z,21.48
2022-10-06T00:26:23.107Z,22.87
2022-10-06T00:29:25.848Z,18.40
2022-10-06T00:32:27.818Z,18.33
2022-10-06T00:35:32.502Z,19.58
2022-10-06T00:38:34.841Z,18.60
2022-10-06T00:41:36.797Z,21.40
2022-10-06T00:44:38.912Z,22.75
2022-10-06T00:47:41.862Z,20.20
2022-10-06T00:50:44.236Z,23.40
2022-10-06T00:53:46.203Z,22.83
2022-10-06T00:56:48.288Z,20.33
2022-10-06T00:59:50.812Z,21.13
2022-10-06T01:02:57.090Z,21.15
2022-10-06T01:06:00.057Z,23.20
2022-10-06T01:09:02.024Z,20.48
2022-10-06T01:12:05.539Z,20.70
2022-10-06T01:15:08.080Z,20.30
2022-10-06T01:18:13.881Z,17.45
2022-10-06T01:21:25.804Z,23.30
2022-10-06T01:24:28.657Z,22.70
2022-10-06T01:27:31.847Z,23.63
2022-10-06T01:30:53.681Z,24.35
2022-10-06T01:33:58.407Z,20.67
2022-10-06T01:37:00.424Z,19.75
2022-10-06T01:40:03.208Z,19.13
2022-10-06T01:43:05.154Z,22.15
2022-10-06T01:46:07.190Z,22.23
2022-10-06T01:49:09.263Z,23.30
2022-10-06T01:52:11.202Z,20.90
2022-10-06T01:55:14.589Z,20.13
2022-10-06T01:58:17.748Z,21.10
2022-10-06T02:01:20.659Z,20.83
2022-10-06T02:04:22.712Z,23.70
2022-10-06T02:07:25.228Z,19.50
2022-10-06T02:10:27.221Z,22.30
2022-10-06T02:13:30.040Z,18.17
2022-10-06T02:16:32.375Z,24.80
2022-10-06T02:19:34.782Z,18.90
2022-10-06T02:22:40.756Z,21.55
2022-10-06T02:25:42.717Z,21.98
2022-10-06T02:28:46.724Z,21.70
2022-10-06T02:31:52.284Z,20.55
2022-10-06T02:34:55.721Z,21.63
2022-10-06T02:37:57.807Z,21.63
2022-10-06T02:41:00.687Z,21.90
2022-10-06T02:44:02.748Z,22.42
2022-10-06T02:47:05.481Z,28.20
2022-10-06T02:50:07.796Z,21.23
2022-10-06T02:53:10.284Z,20.58
2022-10-06T02:56:16.105Z,20.33
2022-10-06T02:59:18.172Z,19.60
2022-10-06T03:02:20.573Z,19.60
2022-10-06T03:05:22.616Z,20.88
2022-10-06T03:08:24.723Z,19.98
2022-10-06T03:11:31.038Z,23.27
2022-10-06T03:14:33.488Z,21.70
2022-10-06T03:17:35.499Z,21.67
2022-10-06T03:20:37.464Z,20.27
2022-10-06T03:23:39.551Z,23.43
2022-10-06T03:26:42.547Z,25.20
2022-10-06T03:29:46.115Z,24.80
2022-10-06T03:32:49.760Z,21.67
2022-10-06T03:35:58.476Z,26.53
2022-10-06T03:39:02.796Z,22.50
2022-10-06T03:42:05.702Z,26.38
2022-10-06T03:45:08.004Z,25.90
2022-10-06T03:48:10.644Z,24.58
2022-10-06T03:51:23.081Z,24.48
2022-10-06T03:54:25.703Z,25.27
2022-10-06T03:57:28.229Z,26.55
2022-10-06T04:00:30.489Z,27.02
2022-10-06T04:03:32.938Z,26.90
2022-10-06T04:06:36.021Z,26.77
2022-10-06T04:09:39.015Z,31.00
2022-10-06T04:12:41.081Z,27.45
2022-10-06T04:15:43.313Z,28.58
2022-10-06T04:18:46.161Z,30.40
2022-10-06T04:21:48.307Z,33.45
2022-10-06T04:24:54.454Z,29.88
2022-10-06T04:27:57.517Z,34.27
2022-10-06T04:31:00.204Z,26.33
2022-10-06T04:34:02.373Z,27.35
2022-10-06T04:37:05.061Z,26.50
2022-10-06T04:40:07.905Z,30.23
2022-10-06T04:43:11.430Z,28.17
2022-10-06T04:46:40.994Z,26.52
2022-10-06T04:49:37.170Z,25.13
2022-10-06T04:52:39.902Z,24.83
2022-10-06T04:55:41.984Z,26.35
2022-10-06T04:58:45.393Z,27.67
2022-10-06T05:01:47.538Z,24.13
2022-10-06T05:04:49.988Z,30.58
2022-10-06T05:07:52.848Z,30.30
2022-10-06T05:11:05.828Z,28.50
2022-10-06T05:14:07.855Z,26.58
2022-10-06T05:17:13.036Z,30.10
2022-10-06T05:20:16.129Z,28.33
2022-10-06T05:23:18.857Z,31.10
2022-10-06T05:26:22.897Z,31.58
2022-10-06T05:29:25.242Z,29.42
2022-10-06T05:32:27.207Z,31.80
2022-10-06T05:35:29.825Z,27.17
2022-10-06T05:38:33.272Z,28.83
2022-10-06T05:41:37.914Z,28.67
2022-10-06T05:44:42.811Z,31.08
2022-10-06T05:47:48.544Z,28.92
2022-10-06T05:51:05.819Z,30.65
2022-10-06T05:54:12.999Z,34.30
2022-10-06T05:57:15.632Z,34.83
2022-10-06T06:00:18.328Z,33.08
2022-10-06T06:03:21.257Z,39.23
2022-10-06T06:06:24.691Z,39.38
2022-10-06T06:09:29.058Z,27.98
2022-10-06T06:12:35.921Z,26.52
2022-10-06T06:16:06.049Z,22.43
2022-10-06T06:19:10.858Z,18.80
2022-10-06T06:22:15.992Z,19.13
2022-10-06T06:25:20.320Z,17.53
2022-10-06T06:28:22.635Z,22.75
2022-10-06T06:31:30.933Z,22.30
2022-10-06T06:34:33.240Z,21.13
2022-10-06T06:37:35.997Z,18.90
2022-10-06T06:40:41.513Z,21.08
2022-10-06T06:43:45.399Z,19.40
2022-10-06T06:47:19.871Z,21.48
2022-10-06T06:50:24.066Z,18.90
2022-10-06T06:53:29.569Z,21.00
2022-10-06T06:56:37.977Z,18.80
2022-10-06T06:59:42.443Z,24.47
2022-10-06T07:02:47.529Z,18.40
2022-10-06T07:05:49.739Z,20.33
2022-10-06T07:08:53.102Z,20.70
2022-10-06T07:11:55.273Z,19.13
2022-10-06T07:15:16.925Z,19.47
2022-10-06T07:18:40.859Z,18.13
2022-10-06T07:22:01.720Z,20.80
2022-10-06T07:25:11.762Z,16.98
2022-10-06T07:28:17.322Z,18.97
2022-10-06T07:31:20.024Z,21.00
2022-10-06T07:34:23.249Z,20.17
2022-10-06T07:37:25.702Z,15.93
2022-10-06T07:40:29.464Z,17.90
2022-10-06T07:43:34.136Z,20.53
2022-10-06T07:46:36.207Z,17.25
2022-10-06T07:49:46.471Z,18.50
2022-10-06T07:52:48.941Z,17.05
2022-10-06T07:55:52.207Z,16.25
2022-10-06T07:58:58.744Z,19.27
2022-10-06T08:02:00.858Z,17.13
2022-10-06T08:05:03.635Z,18.13
2022-10-06T08:08:06.161Z,16.38
2022-10-06T08:11:08.382Z,17.08
2022-10-06T08:14:10.402Z,17.37
2022-10-06T08:17:12.534Z,17.95
2022-10-06T08:20:14.707Z,16.80
2022-10-06T08:23:16.759Z,19.45
2022-10-06T08:26:19.841Z,18.77
2022-10-06T08:29:22.882Z,17.20
2022-10-06T08:32:25.448Z,20.40
2022-10-06T08:35:27.638Z,15.20
2022-10-06T08:38:29.862Z,17.08
2022-10-06T08:41:48.580Z,17.25
2022-10-06T08:44:56.886Z,16.50
2022-10-06T08:48:03.185Z,14.77
2022-10-06T08:51:05.395Z,14.55
2022-10-06T08:54:13.590Z,16.08
2022-10-06T08:57:25.672Z,15.65
2022-10-06T09:00:33.452Z,15.27
2022-10-06T09:03:37.811Z,13.25
2022-10-06T09:06:45.690Z,13.90
2022-10-06T09:10:06.252Z,13.88
2022-10-06T09:13:21.587Z,15.63
2022-10-06T09:16:28.877Z,14.47
2022-10-06T09:19:42.674Z,13.40
2022-10-06T09:22:44.823Z,13.07
2022-10-06T09:25:47.122Z,16.15
2022-10-06T09:28:50.014Z,11.25
2022-10-06T09:31:53.901Z,16.63
2022-10-06T09:35:00.157Z,12.85
2022-10-06T09:38:08.802Z,12.60
2022-10-06T09:41:14.026Z,13.00
2022-10-06T09:44:27.606Z,12.93
2022-10-06T09:47:32.425Z,11.40
2022-10-06T09:50:35.274Z,11.68
2022-10-06T09:53:39.630Z,10.35
2022-10-06T09:56:42.125Z,9.75
2022-10-06T09:59:45.423Z,8.35
2022-10-06T10:02:47.940Z,11.53
2022-10-06T10:05:51.353Z,6.97
2022-10-06T10:09:12.032Z,6.47
2022-10-06T10:12:33.586Z,7.72
2022-10-06T10:15:40.050Z,9.13
2022-10-06T10:18:46.427Z,6.63
2022-10-06T10:21:48.773Z,6.30
2022-10-06T10:25:06.330Z,6.03
2022-10-06T10:28:15.889Z,7.50
2022-10-06T10:31:18.369Z,7.20
2022-10-06T10:34:40.336Z,7.57
2022-10-06T10:38:05.767Z,10.32
2022-10-06T10:41:13.365Z,6.53
2022-10-06T10:44:23.719Z,5.85
2022-10-06T10:47:30.960Z,8.50
2022-10-06T10:50:43.319Z,9.63
2022-10-06T10:53:55.020Z,10.52
2022-10-06T10:56:58.472Z,5.90
2022-10-06T11:00:01.406Z,6.60
2022-10-06T11:03:03.682Z,6.32
2022-10-06T11:06:14.971Z,5.60
2022-10-06T11:09:38.761Z,7.93
2022-10-06T11:12:49.853Z,6.53
2022-10-06T11:15:58.125Z,6.90
2022-10-06T11:19:06.318Z,7.88
2022-10-06T11:22:14.861Z,9.77
2022-10-06T11:25:19.400Z,6.07
2022-10-06T11:28:25.011Z,7.40
2022-10-06T11:31:33.161Z,6.13
2022-10-06T11:34:35.218Z,10.18
2022-10-06T11:37:45.243Z,8.60
2022-10-06T11:40:52.472Z,7.80
2022-10-06T11:44:04.342Z,7.32
2022-10-06T11:47:11.167Z,8.63
2022-10-06T11:50:33.274Z,7.80
2022-10-06T11:53:39.698Z,12.90
2022-10-06T11:56:41.759Z,6.63
2022-10-06T11:59:43.731Z,6.90
2022-10-06T12:02:46.908Z,5.70
2022-10-06T12:05:56.130Z,7.28
2022-10-06T12:08:58.648Z,6.90
2022-10-06T12:12:17.827Z,7.15
2022-10-06T12:19:16.938Z,7.43
2022-10-06T12:22:31.023Z,8.80
2022-10-06T12:25:38.593Z,8.97
2022-10-06T12:28:50.363Z,7.13
2022-10-06T12:31:52.761Z,6.70
2022-10-06T12:35:01.004Z,12.55
2022-10-06T12:38:06.837Z,7.95
2022-10-06T12:41:28.746Z,7.63
2022-10-06T12:44:38.139Z,6.90
2022-10-06T12:47:43.422Z,6.93
2022-10-06T12:50:45.393Z,7.13
2022-10-06T12:53:50.481Z,7.35
2022-10-06T12:57:02.812Z,11.00
2022-10-06T13:00:21.476Z,8.75
2022-10-06T13:03:24.529Z,7.85
2022-10-06T13:06:26.544Z,6.20
2022-10-06T13:09:28.546Z,6.72
2022-10-06T13:12:31.803Z,9.37
2022-10-06T13:15:35.572Z,7.90
2022-10-06T13:18:37.515Z,8.68
2022-10-06T13:21:39.562Z,10.65
2022-10-06T13:24:41.515Z,8.00
2022-10-06T13:27:48.722Z,7.83
2022-10-06T13:34:11.447Z,7.53
2022-10-06T13:37:14.860Z,10.38
2022-10-06T13:40:22.099Z,7.90
2022-10-06T13:43:39.826Z,7.10
2022-10-06T13:46:44.392Z,6.50
2022-10-06T13:49:51.390Z,6.78
2022-10-06T13:52:53.385Z,6.85
2022-10-06T13:55:55.459Z,10.20
2022-10-06T13:58:57.428Z,8.10
2022-10-06T14:02:20.439Z,7.10
2022-10-06T14:05:31.417Z,7.18
2022-10-06T14:08:33.802Z,20.00
2022-10-06T14:11:35.895Z,11.63
2022-10-06T14:14:38.328Z,4.53
2022-10-06T14:17:41.090Z,6.50
2022-10-06T14:20:47.302Z,5.72
2022-10-06T14:23:49.551Z,5.35
2022-10-06T14:26:52.232Z,8.30
2022-10-06T14:29:55.677Z,7.60
2022-10-06T14:32:57.764Z,8.52
2022-10-06T14:35:59.832Z,11.63
2022-10-06T14:39:02.784Z,9.95
2022-10-06T14:42:04.956Z,6.80
2022-10-06T14:45:08.895Z,9.27
2022-10-06T14:48:11.633Z,6.32
2022-10-06T14:51:13.610Z,8.02
2022-10-06T14:54:15.585Z,7.18
2022-10-06T14:57:17.510Z,9.25
2022-10-06T15:00:20.838Z,9.27
2022-10-06T15:03:22.853Z,8.18
2022-10-06T15:06:43.808Z,7.40
2022-10-06T15:09:45.765Z,11.90
2022-10-06T15:12:47.688Z,11.88
2022-10-06T15:15:56.950Z,12.53
2022-10-06T15:18:59.568Z,11.98
2022-10-06T15:22:01.546Z,16.45
2022-10-06T15:25:03.637Z,9.55
2022-10-06T15:28:24.152Z,11.15
2022-10-06T15:31:26.940Z,10.13
2022-10-06T15:34:29.786Z,11.95
2022-10-06T15:37:31.813Z,13.32
2022-10-06T15:40:33.763Z,12.63
2022-10-06T15:43:55.061Z,12.90
2022-10-06T15:46:57.381Z,14.63
2022-10-06T15:49:59.428Z,17.63
2022-10-06T15:53:01.343Z,19.00
2022-10-06T15:56:04.349Z,13.73
2022-10-06T15:59:06.890Z,22.20
2022-10-06T16:02:16.212Z,21.50
2022-10-06T16:05:38.209Z,21.60
2022-10-06T16:08:40.202Z,19.65
2022-10-06T16:11:42.240Z,17.05
2022-10-06T16:14:44.726Z,17.88
2022-10-06T16:17:46.727Z,18.00
2022-10-06T16:20:55.524Z,18.65
2022-10-06T16:23:57.952Z,20.92
2022-10-06T16:27:00.187Z,23.02
2022-10-06T16:30:02.309Z,18.38
2022-10-06T16:33:04.295Z,16.60
2022-10-06T16:36:06.353Z,19.83
2022-10-06T16:39:11.148Z,22.50
2022-10-06T16:42:13.088Z,18.20
2022-10-06T16:45:15.171Z,14.88
2022-10-06T16:48:17.085Z,19.97
2022-10-06T16:51:23.101Z,15.70
2022-10-06T16:54:25.589Z,18.85
2022-10-06T16:57:27.733Z,17.17
2022-10-06T17:00:29.754Z,18.88
2022-10-06T17:03:31.795Z,15.53
2022-10-06T17:06:34.791Z,14.70
2022-10-06T17:09:36.921Z,21.08
2022-10-06T17:12:39.226Z,19.13
2022-10-06T17:15:41.431Z,22.52
2022-10-06T17:18:44.058Z,25.57
2022-10-06T17:21:48.801Z,29.48
2022-10-06T17:24:52.572Z,22.13
2022-10-06T17:27:54.520Z,17.38
2022-10-06T17:30:59.621Z,22.33
2022-10-06T17:34:05.499Z,24.17
2022-10-06T17:37:07.610Z,23.67
2022-10-06T17:40:09.601Z,26.52
2022-10-06T17:43:11.540Z,24.73
2022-10-06T17:46:15.234Z,25.70
2022-10-06T17:49:20.076Z,23.77
2022-10-06T17:52:24.350Z,26.55
2022-10-06T17:55:27.940Z,27.92
2022-10-06T17:58:30.197Z,26.00
2022-10-06T18:01:32.796Z,29.95
2022-10-06T18:04:35.917Z,37.63
2022-10-06T18:07:38.317Z,35.45
2022-10-06T18:11:05.371Z,63.03
2022-10-06T18:14:08.587Z,74.97
2022-10-06T18:17:10.510Z,46.70
2022-10-06T18:20:12.466Z,54.67
2022-10-06T18:23:14.855Z,58.10
2022-10-06T18:26:18.037Z,42.55
2022-10-06T18:29:21.888Z,47.58
2022-10-06T18:36:12.272Z,53.60
2022-10-06T18:39:13.875Z,55.10
2022-10-06T18:42:15.793Z,47.33
2022-10-06T18:45:39.423Z,45.50
2022-10-06T18:49:00.277Z,40.78
2022-10-06T18:52:02.403Z,39.50
2022-10-06T18:55:04.491Z,42.55
2022-10-06T18:58:06.501Z,50.42
2022-10-06T19:01:08.847Z,44.38
2022-10-06T19:04:13.117Z,47.97
2022-10-06T19:07:15.286Z,43.60
2022-10-06T19:10:17.241Z,51.55
2022-10-06T19:13:20.329Z,56.42
2022-10-06T19:16:22.536Z,58.75
2022-10-06T19:19:26.447Z,58.20
2022-10-06T19:22:28.497Z,49.47
2022-10-06T19:25:30.445Z,58.03
2022-10-06T19:28:33.294Z,79.63
2022-10-06T19:31:41.355Z,85.95
2022-10-06T19:34:43.628Z,77.00
2022-10-06T19:37:45.975Z,82.33
2022-10-06T19:40:48.301Z,86.25
2022-10-06T19:43:50.760Z,77.68
2022-10-06T19:46:55.042Z,76.68
2022-10-06T19:50:02.123Z,78.70
2022-10-06T19:53:06.162Z,73.77
2022-10-06T19:56:08.141Z,79.88
2022-10-06T19:59:13.630Z,79.68
2022-10-06T20:02:15.566Z,77.68
2022-10-06T20:05:17.620Z,70.03
2022-10-06T20:08:20.440Z,76.37
2022-10-06T20:11:22.381Z,69.15
2022-10-06T20:14:24.420Z,71.78
2022-10-06T20:17:28.113Z,66.13
2022-10-06T20:20:30.077Z,69.67
2022-10-06T20:23:32.847Z,68.27
2022-10-06T20:26:38.561Z,66.85
2022-10-06T20:29:40.500Z,62.40
2022-10-06T20:32:42.442Z,63.58
2022-10-06T20:35:45.869Z,57.90
2022-10-06T20:39:06.420Z,65.93
2022-10-06T20:42:13.945Z,62.83
2022-10-06T20:45:17.154Z,68.50
2022-10-06T20:48:19.117Z,63.03
2022-10-06T20:51:25.435Z,62.23
2022-10-06T20:54:35.069Z,61.87
2022-10-06T20:57:37.170Z,67.03
2022-10-06T21:00:39.289Z,79.55
2022-10-06T21:03:45.095Z,67.15
2022-10-06T21:06:47.472Z,83.90
2022-10-06T21:09:52.212Z,67.63
2022-10-06T21:12:55.836Z,50.75
2022-10-06T21:16:00.530Z,48.85
2022-10-06T21:19:03.934Z,44.20
2022-10-06T21:22:06.149Z,43.57
2022-10-06T21:25:08.291Z,42.42
2022-10-06T21:28:10.291Z,44.75
2022-10-06T21:31:13.611Z,41.55
2022-10-06T21:34:15.607Z,38.87
2022-10-06T21:37:17.553Z,43.55
2022-10-06T21:40:19.479Z,41.15
2022-10-06T21:43:21.459Z,35.55
2022-10-06T21:46:28.810Z,39.23
2022-10-06T21:49:31.045Z,40.65
2022-10-06T21:52:33.013Z,37.33
2022-10-06T21:55:34.989Z,39.58
2022-10-06T21:58:36.923Z,38.50
2022-10-06T22:01:40.163Z,36.95
2022-10-06T22:04:42.141Z,41.30
2022-10-06T22:07:44.393Z,40.17
2022-10-06T22:10:46.457Z,36.47
2022-10-06T22:13:49.543Z,39.97
2022-10-06T22:16:51.503Z,41.75
2022-10-06T22:19:53.523Z,52.25
2022-10-06T22:22:55.420Z,44.17
2022-10-06T22:25:57.802Z,42.08
2022-10-06T22:29:00.086Z,44.65
2022-10-06T22:32:02.009Z,42.30
2022-10-06T22:35:04.106Z,45.80
2022-10-06T22:38:06.060Z,46.75
2022-10-06T22:41:09.505Z,48.72
2022-10-06T22:44:11.468Z,42.87
2022-10-06T22:47:14.216Z,41.10
2022-10-06T22:50:16.458Z,37.35
2022-10-06T22:53:19.431Z,38.53
2022-10-06T22:56:21.633Z,36.77
2022-10-06T22:59:23.600Z,35.80
2022-10-06T23:02:25.496Z,33.95
2022-10-06T23:05:27.524Z,38.13
2022-10-06T23:08:34.906Z,38.30
2022-10-06T23:11:37.372Z,35.92
2022-10-06T23:14:39.254Z,39.63
2022-10-06T23:17:42.137Z,39.33
2022-10-06T23:20:44.310Z,40.57
2022-10-06T23:23:46.302Z,37.80
2022-10-06T23:26:48.229Z,36.58
2022-10-06T23:29:50.522Z,40.08
2022-10-06T23:32:52.447Z,43.27
2022-10-06T23:35:58.458Z,36.22
2022-10-06T23:39:00.578Z,36.60
2022-10-06T23:42:02.490Z,44.20
2022-10-06T23:45:04.601Z,43.88
2022-10-06T23:48:06.528Z,42.33
2022-10-06T23:51:09.651Z,41.50
2022-10-06T23:54:12.376Z,39.07
2022-10-06T23:57:14.339Z,39.50
